シカゴ/オヘア の空港の天気 - METARとTAF

シカゴ・オヘア国際空港 ( KORD / ORD ) - アメリカ イリノイ州シカゴ
飛行場実況気象(Metar)
観測時間01/24 12:51 CST (01/24 18:51 UTC)
風向・風速北北西 5m/s
視程10km以上
天気現象
全天を覆う雲 雲底高度 580m
気温-3.9℃
湿度71%
気圧1004.5hPa
METARKORD 241851Z 33010KT 10SM OVC019 M04/M08 A2963 RMK AO2 SLP045 T10391083
過去の天気等 Google飛行場航空写真 Wunderground天気予報

過去48時間のMETAR

飛行場予報(TAF)
発表時間: 1/24 11:20 CST (1/24 17:20 UTC)
予報対象時間: 24日12時 CST ~ 25日18時 CST
風向・風速西北西 5m/s 瞬間風速 8m/s
視程10km以上
全天を覆う雲 雲底高度 610m
24日12時 CST ~ 24日16時 CST に一時的に
天気現象弱い雪
24日17時 CST から
風向・風速北西 6m/s 瞬間風速 10m/s
視程10km以上
全天の8割程度の雲 雲底高度 760m
24日22時 CST から
風向・風速北西 5m/s
視程10km以上
全天の4割程度の雲 雲底高度 760m
25日12時 CST から
風向・風速西北西 5m/s 瞬間風速 8m/s
視程10km以上
全天の4割程度の雲 雲底高度 610m
全天の8割程度の雲 雲底高度 1070m
KORD 241720Z 2418/2524 29010G15KT P6SM OVC020
TEMPO 2418/2422 -SN
FM242300 32012G19KT P6SM BKN025
FM250400 32010KT P6SM SCT025
FM251800 30010G15KT P6SM SCT020 BKN035